sensor_id;sensor_type;location;lat;lon;timestamp;P1;durP1;ratioP1;P2;durP2;ratioP2
7444;SDS011;3764;48.126;11.594;2023-06-19T00:01:44;14.10;;;12.70;;
7444;SDS011;3764;48.126;11.594;2023-06-19T00:04:11;14.43;;;12.93;;
7444;SDS011;3764;48.126;11.594;2023-06-19T00:06:38;16.27;;;14.57;;
7444;SDS011;3764;48.126;11.594;2023-06-19T00:09:06;15.73;;;14.00;;
7444;SDS011;3764;48.126;11.594;2023-06-19T00:11:35;15.60;;;14.00;;
7444;SDS011;3764;48.126;11.594;2023-06-19T00:14:02;19.00;;;14.20;;
7444;SDS011;3764;48.126;11.594;2023-06-19T00:16:30;14.70;;;13.13;;
7444;SDS011;3764;48.126;11.594;2023-06-19T00:18:58;15.67;;;14.20;;
7444;SDS011;3764;48.126;11.594;2023-06-19T00:21:25;16.60;;;14.90;;
7444;SDS011;3764;48.126;11.594;2023-06-19T00:23:52;16.20;;;13.27;;
7444;SDS011;3764;48.126;11.594;2023-06-19T00:26:19;15.73;;;14.30;;
7444;SDS011;3764;48.126;11.594;2023-06-19T00:28:49;15.57;;;14.07;;
7444;SDS011;3764;48.126;11.594;2023-06-19T00:31:16;15.33;;;13.80;;
7444;SDS011;3764;48.126;11.594;2023-06-19T00:33:43;14.60;;;13.27;;
7444;SDS011;3764;48.126;11.594;2023-06-19T00:36:13;13.40;;;12.17;;
7444;SDS011;3764;48.126;11.594;2023-06-19T00:38:45;15.17;;;13.70;;
7444;SDS011;3764;48.126;11.594;2023-06-19T00:41:13;15.87;;;13.67;;
7444;SDS011;3764;48.126;11.594;2023-06-19T00:43:41;16.73;;;13.40;;
7444;SDS011;3764;48.126;11.594;2023-06-19T00:46:10;15.63;;;14.17;;
7444;SDS011;3764;48.126;11.594;2023-06-19T00:48:38;14.50;;;13.00;;
7444;SDS011;3764;48.126;11.594;2023-06-19T00:51:05;14.70;;;13.37;;
7444;SDS011;3764;48.126;11.594;2023-06-19T00:53:33;15.97;;;14.43;;
7444;SDS011;3764;48.126;11.594;2023-06-19T00:56:00;14.77;;;13.30;;
7444;SDS011;3764;48.126;11.594;2023-06-19T00:58:29;14.27;;;12.87;;
7444;SDS011;3764;48.126;11.594;2023-06-19T01:00:57;14.63;;;13.30;;
7444;SDS011;3764;48.126;11.594;2023-06-19T01:03:26;15.50;;;14.00;;
7444;SDS011;3764;48.126;11.594;2023-06-19T01:05:53;14.17;;;12.77;;
7444;SDS011;3764;48.126;11.594;2023-06-19T01:08:26;16.13;;;13.63;;
7444;SDS011;3764;48.126;11.594;2023-06-19T01:11:08;15.20;;;13.60;;
7444;SDS011;3764;48.126;11.594;2023-06-19T01:13:39;15.37;;;13.83;;
7444;SDS011;3764;48.126;11.594;2023-06-19T01:16:11;15.80;;;14.17;;
7444;SDS011;3764;48.126;11.594;2023-06-19T01:18:40;13.53;;;12.23;;
7444;SDS011;3764;48.126;11.594;2023-06-19T01:21:11;14.73;;;13.23;;
7444;SDS011;3764;48.126;11.594;2023-06-19T01:23:40;14.40;;;13.00;;
7444;SDS011;3764;48.126;11.594;2023-06-19T01:26:08;14.13;;;12.80;;
7444;SDS011;3764;48.126;11.594;2023-06-19T01:28:36;15.60;;;14.20;;
7444;SDS011;3764;48.126;11.594;2023-06-19T01:31:05;15.10;;;13.70;;
7444;SDS011;3764;48.126;11.594;2023-06-19T01:33:41;15.47;;;13.97;;
7444;SDS011;3764;48.126;11.594;2023-06-19T01:36:11;14.57;;;13.17;;
7444;SDS011;3764;48.126;11.594;2023-06-19T01:38:41;17.40;;;14.77;;
7444;SDS011;3764;48.126;11.594;2023-06-19T01:41:11;13.00;;;11.87;;
7444;SDS011;3764;48.126;11.594;2023-06-19T01:43:39;14.00;;;12.70;;
7444;SDS011;3764;48.126;11.594;2023-06-19T01:46:06;13.40;;;12.10;;
7444;SDS011;3764;48.126;11.594;2023-06-19T01:48:34;14.43;;;12.93;;
7444;SDS011;3764;48.126;11.594;2023-06-19T01:51:02;15.00;;;13.60;;
7444;SDS011;3764;48.126;11.594;2023-06-19T01:53:30;15.00;;;13.43;;
7444;SDS011;3764;48.126;11.594;2023-06-19T01:55:58;14.07;;;12.53;;
7444;SDS011;3764;48.126;11.594;2023-06-19T01:58:26;14.80;;;13.33;;
7444;SDS011;3764;48.126;11.594;2023-06-19T02:00:53;15.03;;;13.57;;
7444;SDS011;3764;48.126;11.594;2023-06-19T02:03:20;15.10;;;13.70;;
7444;SDS011;3764;48.126;11.594;2023-06-19T02:05:47;15.57;;;14.23;;
7444;SDS011;3764;48.126;11.594;2023-06-19T02:08:14;14.27;;;12.90;;
7444;SDS011;3764;48.126;11.594;2023-06-19T02:10:41;15.47;;;13.40;;
7444;SDS011;3764;48.126;11.594;2023-06-19T02:13:10;15.23;;;13.73;;
7444;SDS011;3764;48.126;11.594;2023-06-19T02:15:37;15.27;;;13.77;;
7444;SDS011;3764;48.126;11.594;2023-06-19T02:18:04;15.90;;;14.40;;
7444;SDS011;3764;48.126;11.594;2023-06-19T02:20:31;15.23;;;13.80;;
7444;SDS011;3764;48.126;11.594;2023-06-19T02:22:58;14.33;;;12.83;;
7444;SDS011;3764;48.126;11.594;2023-06-19T02:25:26;15.63;;;14.13;;
7444;SDS011;3764;48.126;11.594;2023-06-19T02:27:53;15.90;;;14.30;;
7444;SDS011;3764;48.126;11.594;2023-06-19T02:30:21;15.23;;;13.90;;
7444;SDS011;3764;48.126;11.594;2023-06-19T02:32:49;16.40;;;14.87;;
7444;SDS011;3764;48.126;11.594;2023-06-19T02:35:16;15.90;;;14.30;;
7444;SDS011;3764;48.126;11.594;2023-06-19T02:37:43;14.67;;;13.30;;
7444;SDS011;3764;48.126;11.594;2023-06-19T02:40:11;15.23;;;13.70;;
7444;SDS011;3764;48.126;11.594;2023-06-19T02:42:39;15.83;;;14.23;;
7444;SDS011;3764;48.126;11.594;2023-06-19T02:45:07;15.10;;;13.60;;
7444;SDS011;3764;48.126;11.594;2023-06-19T02:47:36;15.37;;;13.87;;
7444;SDS011;3764;48.126;11.594;2023-06-19T02:50:03;15.40;;;13.90;;
7444;SDS011;3764;48.126;11.594;2023-06-19T02:52:31;14.97;;;13.57;;
7444;SDS011;3764;48.126;11.594;2023-06-19T02:54:58;14.73;;;13.33;;
7444;SDS011;3764;48.126;11.594;2023-06-19T02:57:25;15.23;;;13.63;;
7444;SDS011;3764;48.126;11.594;2023-06-19T02:59:52;14.97;;;13.47;;
7444;SDS011;3764;48.126;11.594;2023-06-19T03:02:19;16.20;;;14.70;;
7444;SDS011;3764;48.126;11.594;2023-06-19T03:04:48;15.93;;;14.27;;
7444;SDS011;3764;48.126;11.594;2023-06-19T03:07:15;15.83;;;14.20;;
7444;SDS011;3764;48.126;11.594;2023-06-19T03:09:42;14.97;;;13.50;;
7444;SDS011;3764;48.126;11.594;2023-06-19T03:12:10;16.10;;;14.60;;
7444;SDS011;3764;48.126;11.594;2023-06-19T03:14:38;15.93;;;14.23;;
7444;SDS011;3764;48.126;11.594;2023-06-19T03:17:05;15.97;;;14.17;;
7444;SDS011;3764;48.126;11.594;2023-06-19T03:19:32;14.60;;;13.30;;
7444;SDS011;3764;48.126;11.594;2023-06-19T03:22:01;15.07;;;13.60;;
7444;SDS011;3764;48.126;11.594;2023-06-19T03:24:28;15.40;;;13.80;;
7444;SDS011;3764;48.126;11.594;2023-06-19T03:26:55;15.27;;;13.83;;
7444;SDS011;3764;48.126;11.594;2023-06-19T03:29:22;15.90;;;14.40;;
7444;SDS011;3764;48.126;11.594;2023-06-19T03:31:49;14.90;;;13.50;;
7444;SDS011;3764;48.126;11.594;2023-06-19T03:34:16;16.20;;;14.60;;
7444;SDS011;3764;48.126;11.594;2023-06-19T03:36:43;14.67;;;13.20;;
7444;SDS011;3764;48.126;11.594;2023-06-19T03:39:12;14.90;;;13.50;;
7444;SDS011;3764;48.126;11.594;2023-06-19T03:41:40;24.80;;;14.93;;
7444;SDS011;3764;48.126;11.594;2023-06-19T03:44:07;15.53;;;12.40;;
7444;SDS011;3764;48.126;11.594;2023-06-19T03:46:34;21.60;;;13.47;;
7444;SDS011;3764;48.126;11.594;2023-06-19T03:49:01;14.60;;;13.10;;
7444;SDS011;3764;48.126;11.594;2023-06-19T03:51:29;16.87;;;13.63;;
7444;SDS011;3764;48.126;11.594;2023-06-19T03:53:56;13.57;;;12.37;;
7444;SDS011;3764;48.126;11.594;2023-06-19T03:56:25;14.37;;;12.87;;
7444;SDS011;3764;48.126;11.594;2023-06-19T03:58:52;15.07;;;13.67;;
7444;SDS011;3764;48.126;11.594;2023-06-19T04:01:19;15.23;;;13.80;;
7444;SDS011;3764;48.126;11.594;2023-06-19T04:03:46;15.77;;;14.10;;
7444;SDS011;3764;48.126;11.594;2023-06-19T04:06:13;15.87;;;13.83;;
7444;SDS011;3764;48.126;11.594;2023-06-19T04:08:40;15.90;;;14.30;;
7444;SDS011;3764;48.126;11.594;2023-06-19T04:11:08;15.00;;;13.50;;
7444;SDS011;3764;48.126;11.594;2023-06-19T04:13:36;15.73;;;13.50;;
7444;SDS011;3764;48.126;11.594;2023-06-19T04:16:03;14.70;;;13.30;;
7444;SDS011;3764;48.126;11.594;2023-06-19T04:18:30;15.87;;;14.37;;
7444;SDS011;3764;48.126;11.594;2023-06-19T04:20:57;15.20;;;13.70;;
7444;SDS011;3764;48.126;11.594;2023-06-19T04:23:24;14.70;;;13.20;;
7444;SDS011;3764;48.126;11.594;2023-06-19T04:25:51;16.13;;;13.73;;
7444;SDS011;3764;48.126;11.594;2023-06-19T04:28:18;15.07;;;13.57;;
7444;SDS011;3764;48.126;11.594;2023-06-19T04:30:47;14.97;;;13.37;;
7444;SDS011;3764;48.126;11.594;2023-06-19T04:33:14;28.33;;;14.07;;
7444;SDS011;3764;48.126;11.594;2023-06-19T04:35:41;15.20;;;13.57;;
7444;SDS011;3764;48.126;11.594;2023-06-19T04:38:09;15.13;;;13.60;;
7444;SDS011;3764;48.126;11.594;2023-06-19T04:40:40;14.87;;;13.27;;
7444;SDS011;3764;48.126;11.594;2023-06-19T04:43:08;11.80;;;10.70;;
7444;SDS011;3764;48.126;11.594;2023-06-19T04:45:35;14.13;;;12.73;;
7444;SDS011;3764;48.126;11.594;2023-06-19T04:48:04;12.97;;;11.67;;
7444;SDS011;3764;48.126;11.594;2023-06-19T04:50:32;13.27;;;11.87;;
7444;SDS011;3764;48.126;11.594;2023-06-19T04:52:59;17.03;;;12.80;;
7444;SDS011;3764;48.126;11.594;2023-06-19T04:55:26;12.87;;;11.67;;
7444;SDS011;3764;48.126;11.594;2023-06-19T04:57:53;14.00;;;12.60;;
7444;SDS011;3764;48.126;11.594;2023-06-19T05:00:20;15.77;;;13.37;;
7444;SDS011;3764;48.126;11.594;2023-06-19T05:02:48;13.67;;;12.10;;
7444;SDS011;3764;48.126;11.594;2023-06-19T05:05:17;15.17;;;13.63;;
7444;SDS011;3764;48.126;11.594;2023-06-19T05:07:44;14.10;;;12.80;;
7444;SDS011;3764;48.126;11.594;2023-06-19T05:10:11;15.63;;;14.13;;
7444;SDS011;3764;48.126;11.594;2023-06-19T05:12:38;15.67;;;13.87;;
7444;SDS011;3764;48.126;11.594;2023-06-19T05:15:06;13.53;;;12.10;;
7444;SDS011;3764;48.126;11.594;2023-06-19T05:17:34;14.87;;;12.80;;
7444;SDS011;3764;48.126;11.594;2023-06-19T05:20:04;14.60;;;13.03;;
7444;SDS011;3764;48.126;11.594;2023-06-19T05:22:34;16.53;;;13.37;;
7444;SDS011;3764;48.126;11.594;2023-06-19T05:25:01;16.00;;;14.40;;
7444;SDS011;3764;48.126;11.594;2023-06-19T05:27:29;15.70;;;13.00;;
7444;SDS011;3764;48.126;11.594;2023-06-19T05:29:56;15.83;;;14.33;;
7444;SDS011;3764;48.126;11.594;2023-06-19T05:32:23;15.17;;;13.73;;
7444;SDS011;3764;48.126;11.594;2023-06-19T05:34:50;15.13;;;13.63;;
7444;SDS011;3764;48.126;11.594;2023-06-19T05:37:17;15.20;;;13.70;;
7444;SDS011;3764;48.126;11.594;2023-06-19T05:39:45;23.73;;;16.30;;
7444;SDS011;3764;48.126;11.594;2023-06-19T05:42:13;16.20;;;14.50;;
7444;SDS011;3764;48.126;11.594;2023-06-19T05:44:40;15.33;;;13.83;;
7444;SDS011;3764;48.126;11.594;2023-06-19T05:47:07;14.63;;;13.20;;
7444;SDS011;3764;48.126;11.594;2023-06-19T05:49:34;14.80;;;13.40;;
7444;SDS011;3764;48.126;11.594;2023-06-19T05:52:01;14.67;;;13.10;;
7444;SDS011;3764;48.126;11.594;2023-06-19T05:54:28;15.57;;;14.00;;
7444;SDS011;3764;48.126;11.594;2023-06-19T05:56:56;12.77;;;11.57;;
7444;SDS011;3764;48.126;11.594;2023-06-19T05:59:24;19.40;;;12.90;;
7444;SDS011;3764;48.126;11.594;2023-06-19T06:01:51;13.20;;;11.97;;
7444;SDS011;3764;48.126;11.594;2023-06-19T06:04:18;15.87;;;13.90;;
7444;SDS011;3764;48.126;11.594;2023-06-19T06:06:47;14.73;;;13.23;;
7444;SDS011;3764;48.126;11.594;2023-06-19T06:09:14;15.23;;;13.63;;
7444;SDS011;3764;48.126;11.594;2023-06-19T06:11:42;14.27;;;12.77;;
7444;SDS011;3764;48.126;11.594;2023-06-19T06:14:10;13.73;;;12.27;;
7444;SDS011;3764;48.126;11.594;2023-06-19T06:16:37;18.50;;;16.63;;
7444;SDS011;3764;48.126;11.594;2023-06-19T06:19:04;14.00;;;12.57;;
7444;SDS011;3764;48.126;11.594;2023-06-19T06:21:31;16.20;;;13.13;;
7444;SDS011;3764;48.126;11.594;2023-06-19T06:24:00;14.90;;;11.67;;
7444;SDS011;3764;48.126;11.594;2023-06-19T06:26:27;16.90;;;11.77;;
7444;SDS011;3764;48.126;11.594;2023-06-19T06:28:54;13.50;;;11.73;;
7444;SDS011;3764;48.126;11.594;2023-06-19T06:31:23;17.03;;;12.63;;
7444;SDS011;3764;48.126;11.594;2023-06-19T06:33:50;14.73;;;12.50;;
7444;SDS011;3764;48.126;11.594;2023-06-19T06:36:17;12.63;;;11.30;;
7444;SDS011;3764;48.126;11.594;2023-06-19T06:38:44;15.13;;;12.33;;
7444;SDS011;3764;48.126;11.594;2023-06-19T06:41:11;16.40;;;12.37;;
7444;SDS011;3764;48.126;11.594;2023-06-19T06:43:39;14.20;;;12.23;;
7444;SDS011;3764;48.126;11.594;2023-06-19T06:46:08;12.03;;;10.80;;
7444;SDS011;3764;48.126;11.594;2023-06-19T06:48:36;11.53;;;10.40;;
7444;SDS011;3764;48.126;11.594;2023-06-19T06:51:04;12.93;;;11.73;;
7444;SDS011;3764;48.126;11.594;2023-06-19T06:53:31;13.03;;;10.47;;
7444;SDS011;3764;48.126;11.594;2023-06-19T06:55:59;11.10;;;10.10;;
7444;SDS011;3764;48.126;11.594;2023-06-19T06:58:26;19.50;;;12.20;;
7444;SDS011;3764;48.126;11.594;2023-06-19T07:00:53;13.63;;;12.23;;
7444;SDS011;3764;48.126;11.594;2023-06-19T07:03:21;13.27;;;10.20;;
7444;SDS011;3764;48.126;11.594;2023-06-19T07:05:49;12.63;;;11.33;;
7444;SDS011;3764;48.126;11.594;2023-06-19T07:08:17;13.80;;;10.97;;
7444;SDS011;3764;48.126;11.594;2023-06-19T07:10:44;10.30;;;9.27;;
7444;SDS011;3764;48.126;11.594;2023-06-19T07:13:11;11.00;;;9.90;;
7444;SDS011;3764;48.126;11.594;2023-06-19T07:15:39;11.03;;;9.93;;
7444;SDS011;3764;48.126;11.594;2023-06-19T07:18:06;10.13;;;9.13;;
7444;SDS011;3764;48.126;11.594;2023-06-19T07:20:33;9.97;;;9.07;;
7444;SDS011;3764;48.126;11.594;2023-06-19T07:23:01;10.90;;;9.77;;
7444;SDS011;3764;48.126;11.594;2023-06-19T07:25:28;10.50;;;9.50;;
7444;SDS011;3764;48.126;11.594;2023-06-19T07:27:58;9.90;;;8.90;;
7444;SDS011;3764;48.126;11.594;2023-06-19T07:30:26;10.60;;;9.07;;
7444;SDS011;3764;48.126;11.594;2023-06-19T07:32:53;10.90;;;9.80;;
7444;SDS011;3764;48.126;11.594;2023-06-19T07:35:20;9.77;;;8.87;;
7444;SDS011;3764;48.126;11.594;2023-06-19T07:37:48;10.40;;;9.40;;
7444;SDS011;3764;48.126;11.594;2023-06-19T07:40:16;9.87;;;9.07;;
7444;SDS011;3764;48.126;11.594;2023-06-19T07:42:43;10.10;;;9.20;;
7444;SDS011;3764;48.126;11.594;2023-06-19T07:45:11;9.60;;;8.70;;
7444;SDS011;3764;48.126;11.594;2023-06-19T07:47:39;9.07;;;8.17;;
7444;SDS011;3764;48.126;11.594;2023-06-19T07:50:06;9.17;;;8.20;;
7444;SDS011;3764;48.126;11.594;2023-06-19T07:52:33;8.87;;;8.00;;
7444;SDS011;3764;48.126;11.594;2023-06-19T07:55:01;7.60;;;6.90;;
7444;SDS011;3764;48.126;11.594;2023-06-19T07:57:29;8.00;;;7.30;;
7444;SDS011;3764;48.126;11.594;2023-06-19T07:59:56;8.43;;;7.53;;
7444;SDS011;3764;48.126;11.594;2023-06-19T08:02:23;8.30;;;7.50;;
7444;SDS011;3764;48.126;11.594;2023-06-19T08:04:52;8.57;;;7.10;;
7444;SDS011;3764;48.126;11.594;2023-06-19T08:07:19;8.93;;;7.73;;
7444;SDS011;3764;48.126;11.594;2023-06-19T08:09:46;9.07;;;7.77;;
7444;SDS011;3764;48.126;11.594;2023-06-19T08:12:14;8.13;;;7.33;;
7444;SDS011;3764;48.126;11.594;2023-06-19T08:14:42;7.90;;;7.13;;
7444;SDS011;3764;48.126;11.594;2023-06-19T08:17:09;7.80;;;7.10;;
7444;SDS011;3764;48.126;11.594;2023-06-19T08:19:36;8.07;;;7.37;;
7444;SDS011;3764;48.126;11.594;2023-06-19T08:22:04;8.80;;;7.43;;
7444;SDS011;3764;48.126;11.594;2023-06-19T08:24:32;7.50;;;6.90;;
7444;SDS011;3764;48.126;11.594;2023-06-19T08:26:59;7.93;;;7.23;;
7444;SDS011;3764;48.126;11.594;2023-06-19T08:29:26;10.60;;;8.37;;
7444;SDS011;3764;48.126;11.594;2023-06-19T08:31:54;8.07;;;7.33;;
7444;SDS011;3764;48.126;11.594;2023-06-19T08:34:21;9.67;;;6.90;;
7444;SDS011;3764;48.126;11.594;2023-06-19T08:36:49;8.60;;;7.77;;
7444;SDS011;3764;48.126;11.594;2023-06-19T08:39:16;8.37;;;7.20;;
7444;SDS011;3764;48.126;11.594;2023-06-19T08:41:45;7.97;;;7.20;;
7444;SDS011;3764;48.126;11.594;2023-06-19T08:44:12;8.30;;;7.60;;
7444;SDS011;3764;48.126;11.594;2023-06-19T08:46:39;8.27;;;7.50;;
7444;SDS011;3764;48.126;11.594;2023-06-19T08:49:08;8.50;;;7.80;;
7444;SDS011;3764;48.126;11.594;2023-06-19T08:51:36;8.23;;;7.43;;
7444;SDS011;3764;48.126;11.594;2023-06-19T08:54:05;10.97;;;8.17;;
7444;SDS011;3764;48.126;11.594;2023-06-19T08:56:33;8.77;;;7.90;;
7444;SDS011;3764;48.126;11.594;2023-06-19T08:59:09;8.10;;;7.30;;
7444;SDS011;3764;48.126;11.594;2023-06-19T09:01:37;8.00;;;7.30;;
7444;SDS011;3764;48.126;11.594;2023-06-19T09:04:10;7.33;;;6.73;;
7444;SDS011;3764;48.126;11.594;2023-06-19T09:06:45;11.80;;;6.23;;
7444;SDS011;3764;48.126;11.594;2023-06-19T09:09:16;8.27;;;7.20;;
7444;SDS011;3764;48.126;11.594;2023-06-19T09:11:56;7.83;;;7.03;;
7444;SDS011;3764;48.126;11.594;2023-06-19T09:14:24;7.60;;;6.20;;
7444;SDS011;3764;48.126;11.594;2023-06-19T09:16:57;6.60;;;4.30;;
7444;SDS011;3764;48.126;11.594;2023-06-19T09:19:26;4.00;;;3.60;;
7444;SDS011;3764;48.126;11.594;2023-06-19T09:21:53;4.77;;;4.27;;
7444;SDS011;3764;48.126;11.594;2023-06-19T09:24:32;3.70;;;3.40;;
7444;SDS011;3764;48.126;11.594;2023-06-19T09:27:07;4.73;;;4.20;;
7444;SDS011;3764;48.126;11.594;2023-06-19T09:29:38;5.80;;;4.30;;
7444;SDS011;3764;48.126;11.594;2023-06-19T09:32:15;5.80;;;5.17;;
7444;SDS011;3764;48.126;11.594;2023-06-19T09:34:44;5.20;;;4.70;;
7444;SDS011;3764;48.126;11.594;2023-06-19T09:37:12;5.80;;;5.07;;
7444;SDS011;3764;48.126;11.594;2023-06-19T09:39:39;5.40;;;4.87;;
7444;SDS011;3764;48.126;11.594;2023-06-19T09:42:07;7.57;;;6.83;;
7444;SDS011;3764;48.126;11.594;2023-06-19T09:44:38;6.83;;;6.13;;
7444;SDS011;3764;48.126;11.594;2023-06-19T09:47:11;5.90;;;5.30;;
7444;SDS011;3764;48.126;11.594;2023-06-19T09:49:47;7.33;;;5.93;;
7444;SDS011;3764;48.126;11.594;2023-06-19T09:52:17;6.27;;;5.67;;
7444;SDS011;3764;48.126;11.594;2023-06-19T09:54:47;7.57;;;6.80;;
7444;SDS011;3764;48.126;11.594;2023-06-19T09:57:15;6.27;;;5.77;;
7444;SDS011;3764;48.126;11.594;2023-06-19T09:59:43;6.63;;;5.73;;
7444;SDS011;3764;48.126;11.594;2023-06-19T10:02:12;6.93;;;5.97;;
7444;SDS011;3764;48.126;11.594;2023-06-19T10:04:44;6.63;;;5.93;;
7444;SDS011;3764;48.126;11.594;2023-06-19T10:07:16;7.97;;;6.33;;
7444;SDS011;3764;48.126;11.594;2023-06-19T10:10:00;7.93;;;7.17;;
7444;SDS011;3764;48.126;11.594;2023-06-19T10:12:39;7.23;;;6.53;;
7444;SDS011;3764;48.126;11.594;2023-06-19T10:15:10;7.63;;;7.00;;
7444;SDS011;3764;48.126;11.594;2023-06-19T10:17:43;8.03;;;7.23;;
7444;SDS011;3764;48.126;11.594;2023-06-19T10:20:23;8.20;;;7.40;;
7444;SDS011;3764;48.126;11.594;2023-06-19T10:22:55;8.77;;;7.97;;
7444;SDS011;3764;48.126;11.594;2023-06-19T10:25:26;8.83;;;8.03;;
7444;SDS011;3764;48.126;11.594;2023-06-19T10:27:56;8.97;;;7.50;;
7444;SDS011;3764;48.126;11.594;2023-06-19T10:30:24;9.23;;;8.10;;
7444;SDS011;3764;48.126;11.594;2023-06-19T10:32:51;9.07;;;8.17;;
7444;SDS011;3764;48.126;11.594;2023-06-19T10:35:19;9.23;;;8.43;;
7444;SDS011;3764;48.126;11.594;2023-06-19T10:37:49;8.67;;;7.87;;
7444;SDS011;3764;48.126;11.594;2023-06-19T10:40:17;10.27;;;8.60;;
7444;SDS011;3764;48.126;11.594;2023-06-19T10:42:44;9.40;;;8.20;;
7444;SDS011;3764;48.126;11.594;2023-06-19T10:45:12;8.00;;;7.20;;
7444;SDS011;3764;48.126;11.594;2023-06-19T10:47:42;8.90;;;8.10;;
7444;SDS011;3764;48.126;11.594;2023-06-19T10:50:10;8.20;;;7.40;;
7444;SDS011;3764;48.126;11.594;2023-06-19T10:52:43;8.23;;;7.53;;
7444;SDS011;3764;48.126;11.594;2023-06-19T10:55:11;8.30;;;7.50;;
7444;SDS011;3764;48.126;11.594;2023-06-19T10:57:39;8.30;;;7.60;;
7444;SDS011;3764;48.126;11.594;2023-06-19T11:00:07;7.70;;;7.00;;
7444;SDS011;3764;48.126;11.594;2023-06-19T11:02:38;8.40;;;7.00;;
7444;SDS011;3764;48.126;11.594;2023-06-19T11:05:08;8.03;;;7.33;;
7444;SDS011;3764;48.126;11.594;2023-06-19T11:07:36;8.70;;;7.90;;
7444;SDS011;3764;48.126;11.594;2023-06-19T11:10:05;7.77;;;7.10;;
7444;SDS011;3764;48.126;11.594;2023-06-19T11:12:33;7.80;;;7.07;;
7444;SDS011;3764;48.126;11.594;2023-06-19T11:15:02;7.77;;;7.03;;
7444;SDS011;3764;48.126;11.594;2023-06-19T11:17:31;7.50;;;6.90;;
7444;SDS011;3764;48.126;11.594;2023-06-19T11:19:59;7.83;;;7.13;;
7444;SDS011;3764;48.126;11.594;2023-06-19T11:22:36;7.90;;;7.20;;
7444;SDS011;3764;48.126;11.594;2023-06-19T11:25:07;7.47;;;6.77;;
7444;SDS011;3764;48.126;11.594;2023-06-19T11:27:38;7.40;;;6.70;;
7444;SDS011;3764;48.126;11.594;2023-06-19T11:30:06;7.50;;;6.43;;
7444;SDS011;3764;48.126;11.594;2023-06-19T11:32:35;6.70;;;6.20;;
7444;SDS011;3764;48.126;11.594;2023-06-19T11:35:07;8.00;;;7.07;;
7444;SDS011;3764;48.126;11.594;2023-06-19T11:37:36;7.07;;;6.47;;
7444;SDS011;3764;48.126;11.594;2023-06-19T11:40:08;7.40;;;6.70;;
7444;SDS011;3764;48.126;11.594;2023-06-19T11:42:47;9.10;;;8.20;;
7444;SDS011;3764;48.126;11.594;2023-06-19T11:45:15;23.27;;;7.40;;
7444;SDS011;3764;48.126;11.594;2023-06-19T11:47:43;7.70;;;6.90;;
7444;SDS011;3764;48.126;11.594;2023-06-19T11:50:11;7.03;;;6.30;;
7444;SDS011;3764;48.126;11.594;2023-06-19T11:52:38;6.87;;;6.17;;
7444;SDS011;3764;48.126;11.594;2023-06-19T11:55:08;7.53;;;5.07;;
7444;SDS011;3764;48.126;11.594;2023-06-19T11:57:35;6.43;;;5.73;;
7444;SDS011;3764;48.126;11.594;2023-06-19T12:00:03;8.03;;;6.20;;
7444;SDS011;3764;48.126;11.594;2023-06-19T12:02:34;6.63;;;6.07;;
7444;SDS011;3764;48.126;11.594;2023-06-19T12:05:01;6.60;;;6.00;;
7444;SDS011;3764;48.126;11.594;2023-06-19T12:07:28;5.60;;;5.10;;
7444;SDS011;3764;48.126;11.594;2023-06-19T12:09:55;6.00;;;5.53;;
7444;SDS011;3764;48.126;11.594;2023-06-19T12:12:24;7.17;;;5.93;;
7444;SDS011;3764;48.126;11.594;2023-06-19T12:14:51;5.90;;;5.40;;
7444;SDS011;3764;48.126;11.594;2023-06-19T12:17:19;7.60;;;6.50;;
7444;SDS011;3764;48.126;11.594;2023-06-19T12:19:46;7.50;;;6.80;;
7444;SDS011;3764;48.126;11.594;2023-06-19T12:22:14;7.43;;;6.67;;
7444;SDS011;3764;48.126;11.594;2023-06-19T12:24:41;5.50;;;4.97;;
7444;SDS011;3764;48.126;11.594;2023-06-19T12:27:08;5.77;;;5.27;;
7444;SDS011;3764;48.126;11.594;2023-06-19T12:29:37;6.17;;;5.57;;
7444;SDS011;3764;48.126;11.594;2023-06-19T12:32:04;6.50;;;6.00;;
7444;SDS011;3764;48.126;11.594;2023-06-19T12:34:32;7.97;;;5.63;;
7444;SDS011;3764;48.126;11.594;2023-06-19T12:36:59;6.43;;;5.83;;
7444;SDS011;3764;48.126;11.594;2023-06-19T12:39:26;6.87;;;6.17;;
7444;SDS011;3764;48.126;11.594;2023-06-19T12:41:53;7.17;;;4.93;;
7444;SDS011;3764;48.126;11.594;2023-06-19T12:44:21;5.77;;;5.27;;
7444;SDS011;3764;48.126;11.594;2023-06-19T12:46:51;5.23;;;4.80;;
7444;SDS011;3764;48.126;11.594;2023-06-19T12:49:18;5.67;;;5.17;;
7444;SDS011;3764;48.126;11.594;2023-06-19T12:51:45;6.10;;;5.60;;
7444;SDS011;3764;48.126;11.594;2023-06-19T12:54:16;5.60;;;5.13;;
7444;SDS011;3764;48.126;11.594;2023-06-19T12:56:43;7.00;;;5.10;;
7444;SDS011;3764;48.126;11.594;2023-06-19T12:59:10;5.97;;;5.47;;
7444;SDS011;3764;48.126;11.594;2023-06-19T13:01:37;5.57;;;4.80;;
7444;SDS011;3764;48.126;11.594;2023-06-19T13:04:06;5.43;;;4.93;;
7444;SDS011;3764;48.126;11.594;2023-06-19T13:06:33;5.83;;;5.33;;
7444;SDS011;3764;48.126;11.594;2023-06-19T13:09:02;5.47;;;4.90;;
7444;SDS011;3764;48.126;11.594;2023-06-19T13:11:30;6.90;;;5.23;;
7444;SDS011;3764;48.126;11.594;2023-06-19T13:13:59;5.50;;;5.00;;
7444;SDS011;3764;48.126;11.594;2023-06-19T13:16:26;6.00;;;5.40;;
7444;SDS011;3764;48.126;11.594;2023-06-19T13:18:53;5.47;;;4.97;;
7444;SDS011;3764;48.126;11.594;2023-06-19T13:21:22;5.20;;;4.77;;
7444;SDS011;3764;48.126;11.594;2023-06-19T13:23:49;5.20;;;4.53;;
7444;SDS011;3764;48.126;11.594;2023-06-19T13:26:16;5.83;;;5.33;;
7444;SDS011;3764;48.126;11.594;2023-06-19T13:28:43;6.43;;;5.20;;
7444;SDS011;3764;48.126;11.594;2023-06-19T13:31:10;7.00;;;5.07;;
7444;SDS011;3764;48.126;11.594;2023-06-19T13:33:37;6.50;;;4.90;;
7444;SDS011;3764;48.126;11.594;2023-06-19T13:36:04;5.70;;;5.20;;
7444;SDS011;3764;48.126;11.594;2023-06-19T13:38:33;6.20;;;5.63;;
7444;SDS011;3764;48.126;11.594;2023-06-19T13:41:00;6.00;;;5.50;;
7444;SDS011;3764;48.126;11.594;2023-06-19T13:43:27;5.20;;;4.53;;
7444;SDS011;3764;48.126;11.594;2023-06-19T13:45:54;6.10;;;5.50;;
7444;SDS011;3764;48.126;11.594;2023-06-19T13:48:21;5.67;;;5.17;;
7444;SDS011;3764;48.126;11.594;2023-06-19T13:50:48;5.17;;;4.70;;
7444;SDS011;3764;48.126;11.594;2023-06-19T13:53:15;6.80;;;5.67;;
7444;SDS011;3764;48.126;11.594;2023-06-19T13:55:44;6.60;;;5.90;;
7444;SDS011;3764;48.126;11.594;2023-06-19T13:58:12;5.10;;;4.70;;
7444;SDS011;3764;48.126;11.594;2023-06-19T14:00:39;5.40;;;4.90;;
7444;SDS011;3764;48.126;11.594;2023-06-19T14:03:06;6.30;;;5.67;;
7444;SDS011;3764;48.126;11.594;2023-06-19T14:05:33;5.83;;;5.23;;
7444;SDS011;3764;48.126;11.594;2023-06-19T14:08:01;5.80;;;5.30;;
7444;SDS011;3764;48.126;11.594;2023-06-19T14:10:29;5.37;;;4.83;;
7444;SDS011;3764;48.126;11.594;2023-06-19T14:12:59;6.07;;;5.47;;
7444;SDS011;3764;48.126;11.594;2023-06-19T14:15:26;5.60;;;5.20;;
7444;SDS011;3764;48.126;11.594;2023-06-19T14:17:53;5.73;;;5.23;;
7444;SDS011;3764;48.126;11.594;2023-06-19T14:20:20;5.53;;;5.03;;
7444;SDS011;3764;48.126;11.594;2023-06-19T14:22:47;5.93;;;5.43;;
7444;SDS011;3764;48.126;11.594;2023-06-19T14:25:14;5.40;;;4.90;;
7444;SDS011;3764;48.126;11.594;2023-06-19T14:27:41;5.20;;;4.70;;
7444;SDS011;3764;48.126;11.594;2023-06-19T14:30:10;5.80;;;5.20;;
7444;SDS011;3764;48.126;11.594;2023-06-19T14:32:38;8.37;;;6.47;;
7444;SDS011;3764;48.126;11.594;2023-06-19T14:35:05;4.80;;;4.40;;
7444;SDS011;3764;48.126;11.594;2023-06-19T14:37:33;5.83;;;5.33;;
7444;SDS011;3764;48.126;11.594;2023-06-19T14:40:00;6.80;;;4.50;;
7444;SDS011;3764;48.126;11.594;2023-06-19T14:42:27;5.50;;;5.00;;
7444;SDS011;3764;48.126;11.594;2023-06-19T14:44:55;6.77;;;5.73;;
7444;SDS011;3764;48.126;11.594;2023-06-19T14:47:23;5.90;;;4.90;;
7444;SDS011;3764;48.126;11.594;2023-06-19T14:49:50;6.73;;;5.30;;
7444;SDS011;3764;48.126;11.594;2023-06-19T14:52:18;5.93;;;5.43;;
7444;SDS011;3764;48.126;11.594;2023-06-19T14:54:46;6.53;;;5.93;;